sensor_id;sensor_type;location;lat;lon;timestamp;P1;durP1;ratioP1;P2;durP2;ratioP2
73980;SDS011;62348;51.412;5.436;2023-12-20T00:01:31;12.48;;;4.85;;
73980;SDS011;62348;51.412;5.436;2023-12-20T00:03:56;12.63;;;5.43;;
73980;SDS011;62348;51.412;5.436;2023-12-20T00:06:22;16.63;;;4.95;;
73980;SDS011;62348;51.412;5.436;2023-12-20T00:08:47;14.10;;;4.10;;
73980;SDS011;62348;51.412;5.436;2023-12-20T00:11:13;17.65;;;4.47;;
73980;SDS011;62348;51.412;5.436;2023-12-20T00:13:38;18.67;;;5.30;;
73980;SDS011;62348;51.412;5.436;2023-12-20T00:16:03;12.77;;;4.30;;
73980;SDS011;62348;51.412;5.436;2023-12-20T00:18:29;11.88;;;3.75;;
73980;SDS011;62348;51.412;5.436;2023-12-20T00:20:54;13.40;;;4.25;;
73980;SDS011;62348;51.412;5.436;2023-12-20T00:23:20;14.95;;;4.20;;
73980;SDS011;62348;51.412;5.436;2023-12-20T00:25:45;14.18;;;4.35;;
73980;SDS011;62348;51.412;5.436;2023-12-20T00:28:10;11.93;;;3.42;;
73980;SDS011;62348;51.412;5.436;2023-12-20T00:30:36;10.35;;;3.28;;
73980;SDS011;62348;51.412;5.436;2023-12-20T00:33:01;16.30;;;4.00;;
73980;SDS011;62348;51.412;5.436;2023-12-20T00:35:27;12.23;;;3.58;;
73980;SDS011;62348;51.412;5.436;2023-12-20T00:37:53;10.65;;;3.03;;
73980;SDS011;62348;51.412;5.436;2023-12-20T00:40:18;11.20;;;3.05;;
73980;SDS011;62348;51.412;5.436;2023-12-20T00:42:43;9.70;;;2.97;;
73980;SDS011;62348;51.412;5.436;2023-12-20T00:45:09;11.23;;;2.97;;
73980;SDS011;62348;51.412;5.436;2023-12-20T00:47:34;14.18;;;3.25;;
73980;SDS011;62348;51.412;5.436;2023-12-20T00:50:00;13.57;;;2.70;;
73980;SDS011;62348;51.412;5.436;2023-12-20T00:52:25;10.85;;;2.95;;
73980;SDS011;62348;51.412;5.436;2023-12-20T00:54:51;14.52;;;2.70;;
73980;SDS011;62348;51.412;5.436;2023-12-20T00:57:17;12.82;;;3.08;;
73980;SDS011;62348;51.412;5.436;2023-12-20T00:59:42;13.85;;;2.90;;
73980;SDS011;62348;51.412;5.436;2023-12-20T01:02:08;10.48;;;2.63;;
73980;SDS011;62348;51.412;5.436;2023-12-20T01:04:34;13.25;;;2.83;;
73980;SDS011;62348;51.412;5.436;2023-12-20T01:06:59;13.50;;;3.25;;
73980;SDS011;62348;51.412;5.436;2023-12-20T01:09:24;13.93;;;2.95;;
73980;SDS011;62348;51.412;5.436;2023-12-20T01:11:52;15.38;;;3.00;;
73980;SDS011;62348;51.412;5.436;2023-12-20T01:14:18;12.18;;;3.15;;
73980;SDS011;62348;51.412;5.436;2023-12-20T01:16:43;10.65;;;2.92;;
73980;SDS011;62348;51.412;5.436;2023-12-20T01:19:09;8.32;;;2.42;;
73980;SDS011;62348;51.412;5.436;2023-12-20T01:21:34;10.43;;;2.60;;
73980;SDS011;62348;51.412;5.436;2023-12-20T01:23:59;19.05;;;3.65;;
73980;SDS011;62348;51.412;5.436;2023-12-20T01:26:25;10.90;;;3.10;;
73980;SDS011;62348;51.412;5.436;2023-12-20T01:28:50;10.73;;;2.70;;
73980;SDS011;62348;51.412;5.436;2023-12-20T01:31:15;14.40;;;2.55;;
73980;SDS011;62348;51.412;5.436;2023-12-20T01:33:41;15.27;;;2.72;;
73980;SDS011;62348;51.412;5.436;2023-12-20T01:36:06;17.02;;;2.83;;
73980;SDS011;62348;51.412;5.436;2023-12-20T01:38:32;9.15;;;2.83;;
73980;SDS011;62348;51.412;5.436;2023-12-20T01:40:57;9.77;;;2.53;;
73980;SDS011;62348;51.412;5.436;2023-12-20T01:43:23;19.08;;;3.17;;
73980;SDS011;62348;51.412;5.436;2023-12-20T01:45:48;11.90;;;2.90;;
73980;SDS011;62348;51.412;5.436;2023-12-20T01:48:14;11.15;;;3.13;;
73980;SDS011;62348;51.412;5.436;2023-12-20T01:50:41;12.68;;;3.05;;
73980;SDS011;62348;51.412;5.436;2023-12-20T01:53:08;10.13;;;2.70;;
73980;SDS011;62348;51.412;5.436;2023-12-20T01:55:36;11.73;;;2.92;;
73980;SDS011;62348;51.412;5.436;2023-12-20T01:58:04;18.85;;;3.67;;
73980;SDS011;62348;51.412;5.436;2023-12-20T02:00:30;16.52;;;3.20;;
73980;SDS011;62348;51.412;5.436;2023-12-20T02:02:56;13.95;;;3.33;;
73980;SDS011;62348;51.412;5.436;2023-12-20T02:05:26;15.38;;;3.25;;
73980;SDS011;62348;51.412;5.436;2023-12-20T02:07:53;9.93;;;2.58;;
73980;SDS011;62348;51.412;5.436;2023-12-20T02:10:18;15.05;;;2.85;;
73980;SDS011;62348;51.412;5.436;2023-12-20T02:12:44;15.98;;;4.22;;
73980;SDS011;62348;51.412;5.436;2023-12-20T02:15:09;13.90;;;3.03;;
73980;SDS011;62348;51.412;5.436;2023-12-20T02:17:35;13.43;;;2.85;;
73980;SDS011;62348;51.412;5.436;2023-12-20T02:20:01;15.60;;;3.25;;
73980;SDS011;62348;51.412;5.436;2023-12-20T02:22:27;9.90;;;2.47;;
73980;SDS011;62348;51.412;5.436;2023-12-20T02:24:53;9.55;;;2.78;;
73980;SDS011;62348;51.412;5.436;2023-12-20T02:27:18;11.30;;;3.15;;
73980;SDS011;62348;51.412;5.436;2023-12-20T02:29:44;13.93;;;3.30;;
73980;SDS011;62348;51.412;5.436;2023-12-20T02:32:12;14.40;;;2.83;;
73980;SDS011;62348;51.412;5.436;2023-12-20T02:34:37;11.38;;;3.70;;
73980;SDS011;62348;51.412;5.436;2023-12-20T02:37:03;21.52;;;4.10;;
73980;SDS011;62348;51.412;5.436;2023-12-20T02:39:28;9.48;;;2.85;;
73980;SDS011;62348;51.412;5.436;2023-12-20T02:41:54;14.02;;;3.20;;
73980;SDS011;62348;51.412;5.436;2023-12-20T02:44:19;16.42;;;3.55;;
73980;SDS011;62348;51.412;5.436;2023-12-20T02:46:44;15.00;;;3.55;;
73980;SDS011;62348;51.412;5.436;2023-12-20T02:49:10;9.52;;;3.33;;
73980;SDS011;62348;51.412;5.436;2023-12-20T02:51:35;11.10;;;4.53;;
73980;SDS011;62348;51.412;5.436;2023-12-20T02:54:03;13.63;;;4.00;;
73980;SDS011;62348;51.412;5.436;2023-12-20T02:56:29;17.52;;;4.13;;
73980;SDS011;62348;51.412;5.436;2023-12-20T02:58:54;13.68;;;4.18;;
73980;SDS011;62348;51.412;5.436;2023-12-20T03:01:19;16.65;;;3.80;;
73980;SDS011;62348;51.412;5.436;2023-12-20T03:03:45;14.63;;;3.90;;
73980;SDS011;62348;51.412;5.436;2023-12-20T03:06:10;17.48;;;4.05;;
73980;SDS011;62348;51.412;5.436;2023-12-20T03:08:36;16.10;;;3.78;;
73980;SDS011;62348;51.412;5.436;2023-12-20T03:11:02;15.63;;;4.22;;
73980;SDS011;62348;51.412;5.436;2023-12-20T03:13:27;15.82;;;4.85;;
73980;SDS011;62348;51.412;5.436;2023-12-20T03:15:52;13.20;;;4.65;;
73980;SDS011;62348;51.412;5.436;2023-12-20T03:18:18;18.40;;;4.75;;
73980;SDS011;62348;51.412;5.436;2023-12-20T03:20:43;18.52;;;4.65;;
73980;SDS011;62348;51.412;5.436;2023-12-20T03:23:09;11.23;;;4.22;;
73980;SDS011;62348;51.412;5.436;2023-12-20T03:25:34;16.30;;;5.45;;
73980;SDS011;62348;51.412;5.436;2023-12-20T03:28:00;15.32;;;4.88;;
73980;SDS011;62348;51.412;5.436;2023-12-20T03:30:25;17.75;;;6.05;;
73980;SDS011;62348;51.412;5.436;2023-12-20T03:32:50;11.65;;;4.28;;
73980;SDS011;62348;51.412;5.436;2023-12-20T03:35:16;18.38;;;5.70;;
73980;SDS011;62348;51.412;5.436;2023-12-20T03:37:41;15.73;;;4.55;;
73980;SDS011;62348;51.412;5.436;2023-12-20T03:40:07;16.35;;;4.68;;
73980;SDS011;62348;51.412;5.436;2023-12-20T03:42:32;14.98;;;4.97;;
73980;SDS011;62348;51.412;5.436;2023-12-20T03:44:58;23.48;;;5.22;;
73980;SDS011;62348;51.412;5.436;2023-12-20T03:47:23;16.35;;;4.45;;
73980;SDS011;62348;51.412;5.436;2023-12-20T03:49:48;19.67;;;5.07;;
73980;SDS011;62348;51.412;5.436;2023-12-20T03:52:14;17.92;;;4.75;;
73980;SDS011;62348;51.412;5.436;2023-12-20T03:54:40;15.20;;;4.93;;
73980;SDS011;62348;51.412;5.436;2023-12-20T03:57:07;14.50;;;4.43;;
73980;SDS011;62348;51.412;5.436;2023-12-20T03:59:36;14.07;;;4.78;;
73980;SDS011;62348;51.412;5.436;2023-12-20T04:02:02;21.85;;;5.05;;
73980;SDS011;62348;51.412;5.436;2023-12-20T04:04:28;14.88;;;5.13;;
73980;SDS011;62348;51.412;5.436;2023-12-20T04:06:53;14.52;;;4.80;;
73980;SDS011;62348;51.412;5.436;2023-12-20T04:09:18;11.73;;;4.13;;
73980;SDS011;62348;51.412;5.436;2023-12-20T04:11:44;18.60;;;5.30;;
73980;SDS011;62348;51.412;5.436;2023-12-20T04:14:09;16.65;;;5.80;;
73980;SDS011;62348;51.412;5.436;2023-12-20T04:16:35;15.68;;;5.15;;
73980;SDS011;62348;51.412;5.436;2023-12-20T04:19:00;17.60;;;5.85;;
73980;SDS011;62348;51.412;5.436;2023-12-20T04:21:26;20.02;;;5.85;;
73980;SDS011;62348;51.412;5.436;2023-12-20T04:23:51;21.15;;;5.57;;
73980;SDS011;62348;51.412;5.436;2023-12-20T04:26:17;19.17;;;6.60;;
73980;SDS011;62348;51.412;5.436;2023-12-20T04:28:42;22.20;;;5.18;;
73980;SDS011;62348;51.412;5.436;2023-12-20T04:31:07;19.05;;;5.35;;
73980;SDS011;62348;51.412;5.436;2023-12-20T04:33:33;23.42;;;5.85;;
73980;SDS011;62348;51.412;5.436;2023-12-20T04:35:58;17.15;;;5.10;;
73980;SDS011;62348;51.412;5.436;2023-12-20T04:38:25;23.52;;;6.55;;
73980;SDS011;62348;51.412;5.436;2023-12-20T04:40:50;17.40;;;4.95;;
73980;SDS011;62348;51.412;5.436;2023-12-20T04:43:16;19.77;;;5.10;;
73980;SDS011;62348;51.412;5.436;2023-12-20T04:45:42;17.48;;;5.75;;
73980;SDS011;62348;51.412;5.436;2023-12-20T04:48:07;27.60;;;6.00;;
73980;SDS011;62348;51.412;5.436;2023-12-20T04:50:32;25.23;;;5.82;;
73980;SDS011;62348;51.412;5.436;2023-12-20T04:52:58;22.25;;;5.63;;
73980;SDS011;62348;51.412;5.436;2023-12-20T04:55:23;18.63;;;7.22;;
73980;SDS011;62348;51.412;5.436;2023-12-20T04:57:49;19.98;;;6.05;;
73980;SDS011;62348;51.412;5.436;2023-12-20T05:00:14;20.73;;;7.25;;
73980;SDS011;62348;51.412;5.436;2023-12-20T05:02:40;24.98;;;5.68;;
73980;SDS011;62348;51.412;5.436;2023-12-20T05:05:06;19.27;;;5.75;;
73980;SDS011;62348;51.412;5.436;2023-12-20T05:07:31;19.48;;;4.97;;
73980;SDS011;62348;51.412;5.436;2023-12-20T05:09:57;23.20;;;5.97;;
73980;SDS011;62348;51.412;5.436;2023-12-20T05:12:23;40.83;;;8.82;;
73980;SDS011;62348;51.412;5.436;2023-12-20T05:14:48;24.88;;;5.57;;
73980;SDS011;62348;51.412;5.436;2023-12-20T05:17:14;26.67;;;6.22;;
73980;SDS011;62348;51.412;5.436;2023-12-20T05:19:39;18.27;;;6.00;;
73980;SDS011;62348;51.412;5.436;2023-12-20T05:22:04;16.40;;;4.80;;
73980;SDS011;62348;51.412;5.436;2023-12-20T05:24:30;22.45;;;5.55;;
73980;SDS011;62348;51.412;5.436;2023-12-20T05:26:55;20.45;;;5.47;;
73980;SDS011;62348;51.412;5.436;2023-12-20T05:29:20;18.50;;;5.40;;
73980;SDS011;62348;51.412;5.436;2023-12-20T05:31:46;19.63;;;5.82;;
73980;SDS011;62348;51.412;5.436;2023-12-20T05:34:11;24.35;;;6.18;;
73980;SDS011;62348;51.412;5.436;2023-12-20T05:36:37;24.60;;;7.45;;
73980;SDS011;62348;51.412;5.436;2023-12-20T05:39:03;22.17;;;5.70;;
73980;SDS011;62348;51.412;5.436;2023-12-20T05:41:30;20.85;;;5.07;;
73980;SDS011;62348;51.412;5.436;2023-12-20T05:43:56;22.75;;;5.93;;
73980;SDS011;62348;51.412;5.436;2023-12-20T05:46:23;19.50;;;5.03;;
73980;SDS011;62348;51.412;5.436;2023-12-20T05:48:49;22.42;;;5.38;;
73980;SDS011;62348;51.412;5.436;2023-12-20T05:51:15;26.23;;;7.50;;
73980;SDS011;62348;51.412;5.436;2023-12-20T05:53:40;17.05;;;4.68;;
73980;SDS011;62348;51.412;5.436;2023-12-20T05:56:06;22.33;;;5.70;;
73980;SDS011;62348;51.412;5.436;2023-12-20T05:58:32;21.25;;;4.80;;
73980;SDS011;62348;51.412;5.436;2023-12-20T06:00:58;20.67;;;4.78;;
73980;SDS011;62348;51.412;5.436;2023-12-20T06:03:24;23.25;;;5.15;;
73980;SDS011;62348;51.412;5.436;2023-12-20T06:05:49;17.60;;;4.60;;
73980;SDS011;62348;51.412;5.436;2023-12-20T06:08:14;17.13;;;5.47;;
73980;SDS011;62348;51.412;5.436;2023-12-20T06:10:40;22.05;;;5.35;;
73980;SDS011;62348;51.412;5.436;2023-12-20T06:13:05;17.65;;;5.13;;
73980;SDS011;62348;51.412;5.436;2023-12-20T06:15:32;20.52;;;4.80;;
73980;SDS011;62348;51.412;5.436;2023-12-20T06:17:57;20.65;;;6.82;;
73980;SDS011;62348;51.412;5.436;2023-12-20T06:20:23;25.45;;;5.55;;
73980;SDS011;62348;51.412;5.436;2023-12-20T06:22:48;21.08;;;6.65;;
73980;SDS011;62348;51.412;5.436;2023-12-20T06:25:14;22.27;;;4.88;;
73980;SDS011;62348;51.412;5.436;2023-12-20T06:27:40;18.75;;;5.03;;
73980;SDS011;62348;51.412;5.436;2023-12-20T06:30:06;15.20;;;5.65;;
73980;SDS011;62348;51.412;5.436;2023-12-20T06:32:32;15.48;;;4.50;;
73980;SDS011;62348;51.412;5.436;2023-12-20T06:34:59;21.35;;;4.55;;
73980;SDS011;62348;51.412;5.436;2023-12-20T06:37:24;22.20;;;4.90;;
73980;SDS011;62348;51.412;5.436;2023-12-20T06:39:50;18.30;;;4.35;;
73980;SDS011;62348;51.412;5.436;2023-12-20T06:42:15;24.02;;;4.32;;
73980;SDS011;62348;51.412;5.436;2023-12-20T06:44:41;15.30;;;4.22;;
73980;SDS011;62348;51.412;5.436;2023-12-20T06:47:06;19.42;;;4.78;;
73980;SDS011;62348;51.412;5.436;2023-12-20T06:49:32;16.30;;;4.63;;
73980;SDS011;62348;51.412;5.436;2023-12-20T06:51:57;13.80;;;4.47;;
73980;SDS011;62348;51.412;5.436;2023-12-20T06:54:23;20.10;;;5.10;;
73980;SDS011;62348;51.412;5.436;2023-12-20T06:56:48;17.73;;;4.80;;
73980;SDS011;62348;51.412;5.436;2023-12-20T06:59:13;20.98;;;4.43;;
73980;SDS011;62348;51.412;5.436;2023-12-20T07:01:39;17.27;;;4.28;;
73980;SDS011;62348;51.412;5.436;2023-12-20T07:04:04;18.35;;;4.72;;
73980;SDS011;62348;51.412;5.436;2023-12-20T07:06:30;18.67;;;4.70;;
73980;SDS011;62348;51.412;5.436;2023-12-20T07:08:55;23.08;;;5.43;;
73980;SDS011;62348;51.412;5.436;2023-12-20T07:11:20;21.83;;;4.72;;
73980;SDS011;62348;51.412;5.436;2023-12-20T07:13:46;16.90;;;4.15;;
73980;SDS011;62348;51.412;5.436;2023-12-20T07:16:11;22.35;;;4.43;;
73980;SDS011;62348;51.412;5.436;2023-12-20T07:18:38;13.20;;;4.40;;
73980;SDS011;62348;51.412;5.436;2023-12-20T07:21:03;21.70;;;4.50;;
73980;SDS011;62348;51.412;5.436;2023-12-20T07:23:29;21.80;;;4.38;;
73980;SDS011;62348;51.412;5.436;2023-12-20T07:25:54;19.52;;;4.28;;
73980;SDS011;62348;51.412;5.436;2023-12-20T07:28:20;26.65;;;4.97;;
73980;SDS011;62348;51.412;5.436;2023-12-20T07:30:45;18.30;;;4.30;;
73980;SDS011;62348;51.412;5.436;2023-12-20T07:33:11;17.55;;;5.35;;
73980;SDS011;62348;51.412;5.436;2023-12-20T07:35:37;15.15;;;4.30;;
73980;SDS011;62348;51.412;5.436;2023-12-20T07:38:03;21.00;;;5.43;;
73980;SDS011;62348;51.412;5.436;2023-12-20T07:40:28;11.45;;;4.35;;
73980;SDS011;62348;51.412;5.436;2023-12-20T07:42:54;17.92;;;4.03;;
73980;SDS011;62348;51.412;5.436;2023-12-20T07:45:19;16.88;;;4.20;;
73980;SDS011;62348;51.412;5.436;2023-12-20T07:47:45;18.40;;;4.32;;
73980;SDS011;62348;51.412;5.436;2023-12-20T07:50:10;15.35;;;4.68;;
73980;SDS011;62348;51.412;5.436;2023-12-20T07:52:35;21.33;;;4.70;;
73980;SDS011;62348;51.412;5.436;2023-12-20T07:55:01;15.88;;;4.65;;
73980;SDS011;62348;51.412;5.436;2023-12-20T07:57:28;16.95;;;4.32;;
73980;SDS011;62348;51.412;5.436;2023-12-20T07:59:55;15.30;;;4.60;;
73980;SDS011;62348;51.412;5.436;2023-12-20T08:02:20;23.63;;;5.18;;
73980;SDS011;62348;51.412;5.436;2023-12-20T08:04:46;14.60;;;3.45;;
73980;SDS011;62348;51.412;5.436;2023-12-20T08:07:11;14.30;;;4.55;;
73980;SDS011;62348;51.412;5.436;2023-12-20T08:09:36;21.27;;;4.65;;
73980;SDS011;62348;51.412;5.436;2023-12-20T08:12:02;20.60;;;4.35;;
73980;SDS011;62348;51.412;5.436;2023-12-20T08:14:27;16.95;;;5.25;;
73980;SDS011;62348;51.412;5.436;2023-12-20T08:16:53;16.95;;;5.18;;
73980;SDS011;62348;51.412;5.436;2023-12-20T08:19:18;19.55;;;4.32;;
73980;SDS011;62348;51.412;5.436;2023-12-20T08:21:44;15.57;;;4.45;;
73980;SDS011;62348;51.412;5.436;2023-12-20T08:24:09;18.45;;;4.47;;
73980;SDS011;62348;51.412;5.436;2023-12-20T08:26:34;23.65;;;4.45;;
73980;SDS011;62348;51.412;5.436;2023-12-20T08:29:00;13.23;;;4.43;;
73980;SDS011;62348;51.412;5.436;2023-12-20T08:31:25;19.15;;;5.15;;
73980;SDS011;62348;51.412;5.436;2023-12-20T08:33:51;23.98;;;4.07;;
73980;SDS011;62348;51.412;5.436;2023-12-20T08:36:18;17.38;;;3.75;;
73980;SDS011;62348;51.412;5.436;2023-12-20T08:38:46;18.90;;;4.28;;
73980;SDS011;62348;51.412;5.436;2023-12-20T08:41:12;17.88;;;4.40;;
73980;SDS011;62348;51.412;5.436;2023-12-20T08:43:37;15.80;;;4.03;;
73980;SDS011;62348;51.412;5.436;2023-12-20T08:46:05;19.77;;;4.90;;
73980;SDS011;62348;51.412;5.436;2023-12-20T08:48:31;9.73;;;3.70;;
73980;SDS011;62348;51.412;5.436;2023-12-20T08:50:56;25.30;;;4.82;;
73980;SDS011;62348;51.412;5.436;2023-12-20T08:53:22;18.83;;;4.10;;
73980;SDS011;62348;51.412;5.436;2023-12-20T08:55:47;18.02;;;4.35;;
73980;SDS011;62348;51.412;5.436;2023-12-20T08:58:13;13.77;;;4.05;;
73980;SDS011;62348;51.412;5.436;2023-12-20T09:00:39;11.27;;;3.75;;
73980;SDS011;62348;51.412;5.436;2023-12-20T09:03:05;18.88;;;4.88;;
73980;SDS011;62348;51.412;5.436;2023-12-20T09:05:30;25.52;;;4.22;;
73980;SDS011;62348;51.412;5.436;2023-12-20T09:07:56;17.25;;;4.78;;
73980;SDS011;62348;51.412;5.436;2023-12-20T09:10:22;19.73;;;4.30;;
73980;SDS011;62348;51.412;5.436;2023-12-20T09:12:50;17.48;;;4.15;;
73980;SDS011;62348;51.412;5.436;2023-12-20T09:15:16;14.13;;;3.83;;
73980;SDS011;62348;51.412;5.436;2023-12-20T09:17:42;18.42;;;4.07;;
73980;SDS011;62348;51.412;5.436;2023-12-20T09:20:09;17.90;;;4.72;;
73980;SDS011;62348;51.412;5.436;2023-12-20T09:22:34;17.15;;;4.15;;
73980;SDS011;62348;51.412;5.436;2023-12-20T09:25:00;19.10;;;4.85;;
73980;SDS011;62348;51.412;5.436;2023-12-20T09:27:26;15.07;;;4.20;;
73980;SDS011;62348;51.412;5.436;2023-12-20T09:29:52;17.08;;;4.35;;
73980;SDS011;62348;51.412;5.436;2023-12-20T09:32:18;16.98;;;4.13;;
73980;SDS011;62348;51.412;5.436;2023-12-20T09:34:45;17.30;;;3.90;;
73980;SDS011;62348;51.412;5.436;2023-12-20T09:37:11;15.23;;;4.60;;
73980;SDS011;62348;51.412;5.436;2023-12-20T09:39:36;15.48;;;3.42;;
73980;SDS011;62348;51.412;5.436;2023-12-20T09:42:05;17.05;;;4.22;;
73980;SDS011;62348;51.412;5.436;2023-12-20T09:44:32;17.58;;;4.43;;
73980;SDS011;62348;51.412;5.436;2023-12-20T09:46:59;13.32;;;4.13;;
73980;SDS011;62348;51.412;5.436;2023-12-20T09:49:28;14.18;;;3.60;;
73980;SDS011;62348;51.412;5.436;2023-12-20T09:51:54;19.73;;;4.85;;
73980;SDS011;62348;51.412;5.436;2023-12-20T09:54:20;15.73;;;5.00;;
73980;SDS011;62348;51.412;5.436;2023-12-20T09:56:46;16.10;;;4.47;;
73980;SDS011;62348;51.412;5.436;2023-12-20T09:59:12;15.18;;;4.63;;
73980;SDS011;62348;51.412;5.436;2023-12-20T10:01:41;14.20;;;4.43;;
73980;SDS011;62348;51.412;5.436;2023-12-20T10:04:07;12.00;;;4.47;;
73980;SDS011;62348;51.412;5.436;2023-12-20T10:06:37;17.63;;;4.70;;
73980;SDS011;62348;51.412;5.436;2023-12-20T10:09:05;15.45;;;4.32;;
73980;SDS011;62348;51.412;5.436;2023-12-20T10:11:31;14.88;;;3.78;;
73980;SDS011;62348;51.412;5.436;2023-12-20T10:14:00;17.35;;;4.35;;
73980;SDS011;62348;51.412;5.436;2023-12-20T10:16:28;21.08;;;4.32;;
73980;SDS011;62348;51.412;5.436;2023-12-20T10:18:55;17.70;;;5.40;;
73980;SDS011;62348;51.412;5.436;2023-12-20T10:21:21;14.00;;;5.30;;
73980;SDS011;62348;51.412;5.436;2023-12-20T10:23:48;15.80;;;4.22;;
73980;SDS011;62348;51.412;5.436;2023-12-20T10:26:20;14.82;;;4.70;;
73980;SDS011;62348;51.412;5.436;2023-12-20T10:31:31;13.02;;;4.15;;
73980;SDS011;62348;51.412;5.436;2023-12-20T10:33:58;17.83;;;4.03;;
73980;SDS011;62348;51.412;5.436;2023-12-20T10:36:25;13.40;;;4.60;;
73980;SDS011;62348;51.412;5.436;2023-12-20T10:38:54;19.33;;;5.15;;
73980;SDS011;62348;51.412;5.436;2023-12-20T10:41:31;19.00;;;4.38;;
73980;SDS011;62348;51.412;5.436;2023-12-20T10:43:58;19.45;;;6.53;;
73980;SDS011;62348;51.412;5.436;2023-12-20T10:46:29;19.15;;;4.70;;
73980;SDS011;62348;51.412;5.436;2023-12-20T10:48:55;19.23;;;5.00;;
73980;SDS011;62348;51.412;5.436;2023-12-20T10:51:22;16.67;;;4.25;;
73980;SDS011;62348;51.412;5.436;2023-12-20T10:53:49;15.90;;;4.75;;
73980;SDS011;62348;51.412;5.436;2023-12-20T10:56:19;15.55;;;4.63;;
73980;SDS011;62348;51.412;5.436;2023-12-20T10:58:45;18.83;;;4.43;;
73980;SDS011;62348;51.412;5.436;2023-12-20T11:01:12;20.63;;;5.20;;
73980;SDS011;62348;51.412;5.436;2023-12-20T11:03:41;14.90;;;4.47;;
73980;SDS011;62348;51.412;5.436;2023-12-20T11:06:26;16.92;;;4.65;;
73980;SDS011;62348;51.412;5.436;2023-12-20T11:09:22;18.65;;;4.55;;
73980;SDS011;62348;51.412;5.436;2023-12-20T11:17:09;16.73;;;5.20;;
73980;SDS011;62348;51.412;5.436;2023-12-20T11:20:03;17.75;;;5.22;;
73980;SDS011;62348;51.412;5.436;2023-12-20T11:22:31;13.35;;;4.90;;
73980;SDS011;62348;51.412;5.436;2023-12-20T11:25:09;23.38;;;4.95;;
73980;SDS011;62348;51.412;5.436;2023-12-20T11:27:37;18.40;;;4.60;;
73980;SDS011;62348;51.412;5.436;2023-12-20T11:30:07;14.50;;;4.35;;
73980;SDS011;62348;51.412;5.436;2023-12-20T11:32:34;23.10;;;4.75;;
73980;SDS011;62348;51.412;5.436;2023-12-20T11:35:01;20.80;;;4.65;;
73980;SDS011;62348;51.412;5.436;2023-12-20T11:37:43;14.60;;;4.38;;
73980;SDS011;62348;51.412;5.436;2023-12-20T11:40:11;25.48;;;6.28;;
73980;SDS011;62348;51.412;5.436;2023-12-20T11:42:39;14.18;;;4.55;;
73980;SDS011;62348;51.412;5.436;2023-12-20T11:45:15;17.80;;;4.80;;
73980;SDS011;62348;51.412;5.436;2023-12-20T11:47:45;20.58;;;4.35;;
73980;SDS011;62348;51.412;5.436;2023-12-20T11:50:11;20.40;;;5.72;;
73980;SDS011;62348;51.412;5.436;2023-12-20T11:52:37;19.95;;;5.43;;
73980;SDS011;62348;51.412;5.436;2023-12-20T11:55:03;17.52;;;4.65;;
73980;SDS011;62348;51.412;5.436;2023-12-20T11:57:29;17.27;;;4.85;;
73980;SDS011;62348;51.412;5.436;2023-12-20T11:59:55;20.38;;;4.70;;
73980;SDS011;62348;51.412;5.436;2023-12-20T12:02:21;18.98;;;5.35;;
73980;SDS011;62348;51.412;5.436;2023-12-20T12:04:48;12.85;;;4.45;;
73980;SDS011;62348;51.412;5.436;2023-12-20T12:07:13;17.27;;;5.57;;
73980;SDS011;62348;51.412;5.436;2023-12-20T12:09:39;18.98;;;5.05;;
73980;SDS011;62348;51.412;5.436;2023-12-20T12:12:04;19.55;;;4.55;;
73980;SDS011;62348;51.412;5.436;2023-12-20T12:14:30;15.38;;;4.82;;
73980;SDS011;62348;51.412;5.436;2023-12-20T12:16:56;21.23;;;4.63;;
73980;SDS011;62348;51.412;5.436;2023-12-20T12:19:25;12.80;;;4.97;;
73980;SDS011;62348;51.412;5.436;2023-12-20T12:21:52;19.38;;;4.38;;
73980;SDS011;62348;51.412;5.436;2023-12-20T12:24:34;16.90;;;4.75;;
73980;SDS011;62348;51.412;5.436;2023-12-20T12:26:59;18.40;;;5.10;;
73980;SDS011;62348;51.412;5.436;2023-12-20T12:29:25;15.15;;;5.60;;
73980;SDS011;62348;51.412;5.436;2023-12-20T12:31:51;18.70;;;6.32;;
73980;SDS011;62348;51.412;5.436;2023-12-20T12:34:17;16.33;;;6.03;;
73980;SDS011;62348;51.412;5.436;2023-12-20T12:36:43;20.08;;;5.78;;
73980;SDS011;62348;51.412;5.436;2023-12-20T12:39:09;22.38;;;5.50;;
73980;SDS011;62348;51.412;5.436;2023-12-20T12:41:37;25.52;;;6.80;;
73980;SDS011;62348;51.412;5.436;2023-12-20T12:44:02;18.65;;;5.90;;
73980;SDS011;62348;51.412;5.436;2023-12-20T12:46:27;19.10;;;6.22;;
73980;SDS011;62348;51.412;5.436;2023-12-20T12:48:53;16.27;;;6.70;;
73980;SDS011;62348;51.412;5.436;2023-12-20T12:51:18;21.10;;;7.30;;
73980;SDS011;62348;51.412;5.436;2023-12-20T12:53:44;19.15;;;7.60;;
73980;SDS011;62348;51.412;5.436;2023-12-20T12:56:09;17.33;;;8.02;;
73980;SDS011;62348;51.412;5.436;2023-12-20T12:58:34;16.17;;;7.00;;
73980;SDS011;62348;51.412;5.436;2023-12-20T13:01:00;25.00;;;7.70;;
73980;SDS011;62348;51.412;5.436;2023-12-20T13:03:25;20.88;;;7.88;;
73980;SDS011;62348;51.412;5.436;2023-12-20T13:05:51;19.50;;;8.25;;
73980;SDS011;62348;51.412;5.436;2023-12-20T13:08:16;19.25;;;8.23;;
73980;SDS011;62348;51.412;5.436;2023-12-20T13:10:42;23.50;;;7.72;;
73980;SDS011;62348;51.412;5.436;2023-12-20T13:13:07;21.13;;;8.40;;
73980;SDS011;62348;51.412;5.436;2023-12-20T13:15:32;16.63;;;7.68;;
73980;SDS011;62348;51.412;5.436;2023-12-20T13:17:58;17.23;;;7.35;;
73980;SDS011;62348;51.412;5.436;2023-12-20T13:20:25;22.77;;;7.60;;
73980;SDS011;62348;51.412;5.436;2023-12-20T13:22:50;17.58;;;7.30;;
73980;SDS011;62348;51.412;5.436;2023-12-20T13:25:15;16.80;;;7.65;;
73980;SDS011;62348;51.412;5.436;2023-12-20T13:27:41;18.65;;;7.88;;
73980;SDS011;62348;51.412;5.436;2023-12-20T13:30:06;20.40;;;6.70;;
73980;SDS011;62348;51.412;5.436;2023-12-20T13:32:32;19.40;;;7.20;;
73980;SDS011;62348;51.412;5.436;2023-12-20T13:34:57;18.52;;;6.72;;
73980;SDS011;62348;51.412;5.436;2023-12-20T13:37:23;18.60;;;7.03;;
73980;SDS011;62348;51.412;5.436;2023-12-20T13:39:48;18.25;;;7.72;;
73980;SDS011;62348;51.412;5.436;2023-12-20T13:42:14;17.70;;;6.18;;
73980;SDS011;62348;51.412;5.436;2023-12-20T13:44:39;23.52;;;8.43;;
73980;SDS011;62348;51.412;5.436;2023-12-20T13:47:05;19.00;;;7.00;;
73980;SDS011;62348;51.412;5.436;2023-12-20T13:49:31;18.83;;;6.95;;
73980;SDS011;62348;51.412;5.436;2023-12-20T13:51:57;24.23;;;7.70;;
73980;SDS011;62348;51.412;5.436;2023-12-20T13:54:22;19.65;;;6.80;;
73980;SDS011;62348;51.412;5.436;2023-12-20T13:56:48;16.92;;;6.30;;
73980;SDS011;62348;51.412;5.436;2023-12-20T13:59:14;22.13;;;6.88;;
73980;SDS011;62348;51.412;5.436;2023-12-20T14:01:40;17.63;;;5.82;;
73980;SDS011;62348;51.412;5.436;2023-12-20T14:04:05;16.27;;;6.47;;
73980;SDS011;62348;51.412;5.436;2023-12-20T14:06:32;21.55;;;6.40;;
73980;SDS011;62348;51.412;5.436;2023-12-20T14:08:57;20.02;;;6.20;;
73980;SDS011;62348;51.412;5.436;2023-12-20T14:11:25;17.95;;;6.10;;
73980;SDS011;62348;51.412;5.436;2023-12-20T14:13:51;25.42;;;7.88;;
73980;SDS011;62348;51.412;5.436;2023-12-20T14:16:16;14.55;;;6.63;;
73980;SDS011;62348;51.412;5.436;2023-12-20T14:18:41;25.08;;;8.15;;
73980;SDS011;62348;51.412;5.436;2023-12-20T14:21:07;18.17;;;7.65;;
73980;SDS011;62348;51.412;5.436;2023-12-20T14:23:32;17.02;;;5.95;;
73980;SDS011;62348;51.412;5.436;2023-12-20T14:25:58;12.52;;;5.78;;
73980;SDS011;62348;51.412;5.436;2023-12-20T14:28:24;29.20;;;6.57;;
73980;SDS011;62348;51.412;5.436;2023-12-20T14:30:50;19.05;;;7.05;;
73980;SDS011;62348;51.412;5.436;2023-12-20T14:33:15;16.15;;;5.88;;
73980;SDS011;62348;51.412;5.436;2023-12-20T14:35:41;20.33;;;6.20;;
73980;SDS011;62348;51.412;5.436;2023-12-20T14:38:07;17.88;;;6.85;;